sensor_id;sensor_type;location;lat;lon;timestamp;P1;durP1;ratioP1;P2;durP2;ratioP2
68921;SDS011;55959;51.244;5.724;2022-10-16T00:01:13;2.00;;;1.20;;
68921;SDS011;55959;51.244;5.724;2022-10-16T00:03:41;1.60;;;1.20;;
68921;SDS011;55959;51.244;5.724;2022-10-16T00:06:08;1.40;;;1.30;;
68921;SDS011;55959;51.244;5.724;2022-10-16T00:08:35;3.33;;;1.20;;
68921;SDS011;55959;51.244;5.724;2022-10-16T00:11:07;1.63;;;1.10;;
68921;SDS011;55959;51.244;5.724;2022-10-16T00:13:36;2.30;;;1.07;;
68921;SDS011;55959;51.244;5.724;2022-10-16T00:16:04;1.57;;;1.10;;
68921;SDS011;55959;51.244;5.724;2022-10-16T00:18:30;1.47;;;1.23;;
68921;SDS011;55959;51.244;5.724;2022-10-16T00:21:01;1.23;;;1.10;;
68921;SDS011;55959;51.244;5.724;2022-10-16T00:23:32;2.27;;;1.27;;
68921;SDS011;55959;51.244;5.724;2022-10-16T00:26:00;1.70;;;1.30;;
68921;SDS011;55959;51.244;5.724;2022-10-16T00:28:32;2.27;;;1.03;;
68921;SDS011;55959;51.244;5.724;2022-10-16T00:30:59;1.50;;;1.00;;
68921;SDS011;55959;51.244;5.724;2022-10-16T00:33:33;1.50;;;1.00;;
68921;SDS011;55959;51.244;5.724;2022-10-16T00:36:00;1.30;;;1.20;;
68921;SDS011;55959;51.244;5.724;2022-10-16T00:38:28;1.60;;;1.00;;
68921;SDS011;55959;51.244;5.724;2022-10-16T00:40:53;1.53;;;1.00;;
68921;SDS011;55959;51.244;5.724;2022-10-16T00:46:08;2.20;;;1.03;;
68921;SDS011;55959;51.244;5.724;2022-10-16T00:48:38;2.53;;;1.17;;
68921;SDS011;55959;51.244;5.724;2022-10-16T00:51:04;1.00;;;0.93;;
68921;SDS011;55959;51.244;5.724;2022-10-16T00:53:32;1.13;;;1.00;;
68921;SDS011;55959;51.244;5.724;2022-10-16T00:55:59;1.70;;;1.03;;
68921;SDS011;55959;51.244;5.724;2022-10-16T00:58:24;1.20;;;0.70;;
68921;SDS011;55959;51.244;5.724;2022-10-16T01:00:50;1.43;;;1.10;;
68921;SDS011;55959;51.244;5.724;2022-10-16T01:03:27;1.37;;;1.10;;
68921;SDS011;55959;51.244;5.724;2022-10-16T01:06:09;1.00;;;0.80;;
68921;SDS011;55959;51.244;5.724;2022-10-16T01:09:06;1.00;;;0.90;;
68921;SDS011;55959;51.244;5.724;2022-10-16T01:12:27;1.23;;;0.90;;
68921;SDS011;55959;51.244;5.724;2022-10-16T01:15:26;1.30;;;1.00;;
68921;SDS011;55959;51.244;5.724;2022-10-16T01:18:21;1.23;;;0.90;;
68921;SDS011;55959;51.244;5.724;2022-10-16T01:21:17;1.33;;;0.90;;
68921;SDS011;55959;51.244;5.724;2022-10-16T01:35:38;1.07;;;0.83;;
68921;SDS011;55959;51.244;5.724;2022-10-16T01:38:38;1.07;;;0.90;;
68921;SDS011;55959;51.244;5.724;2022-10-16T01:41:16;1.83;;;1.00;;
68921;SDS011;55959;51.244;5.724;2022-10-16T01:44:01;1.00;;;0.90;;
68921;SDS011;55959;51.244;5.724;2022-10-16T01:46:57;0.77;;;0.77;;
68921;SDS011;55959;51.244;5.724;2022-10-16T01:49:26;1.50;;;0.87;;
68921;SDS011;55959;51.244;5.724;2022-10-16T01:51:56;1.33;;;0.80;;
68921;SDS011;55959;51.244;5.724;2022-10-16T01:54:25;0.70;;;0.70;;
68921;SDS011;55959;51.244;5.724;2022-10-16T01:56:54;1.47;;;0.70;;
68921;SDS011;55959;51.244;5.724;2022-10-16T01:59:21;1.77;;;0.70;;
68921;SDS011;55959;51.244;5.724;2022-10-16T02:01:52;2.63;;;0.70;;
68921;SDS011;55959;51.244;5.724;2022-10-16T02:04:28;0.73;;;0.60;;
68921;SDS011;55959;51.244;5.724;2022-10-16T02:06:59;1.97;;;0.90;;
68921;SDS011;55959;51.244;5.724;2022-10-16T02:09:25;0.70;;;0.70;;
68921;SDS011;55959;51.244;5.724;2022-10-16T02:11:52;2.73;;;0.80;;
68921;SDS011;55959;51.244;5.724;2022-10-16T02:14:20;1.03;;;0.70;;
68921;SDS011;55959;51.244;5.724;2022-10-16T02:16:49;0.67;;;0.50;;
68921;SDS011;55959;51.244;5.724;2022-10-16T02:19:15;0.77;;;0.60;;
68921;SDS011;55959;51.244;5.724;2022-10-16T02:24:29;0.67;;;0.67;;
68921;SDS011;55959;51.244;5.724;2022-10-16T02:27:11;1.23;;;0.70;;
68921;SDS011;55959;51.244;5.724;2022-10-16T02:30:13;1.13;;;0.80;;
68921;SDS011;55959;51.244;5.724;2022-10-16T02:32:48;1.10;;;0.70;;
68921;SDS011;55959;51.244;5.724;2022-10-16T02:35:16;1.47;;;0.60;;
68921;SDS011;55959;51.244;5.724;2022-10-16T02:37:44;0.80;;;0.70;;
68921;SDS011;55959;51.244;5.724;2022-10-16T02:40:12;0.60;;;0.50;;
68921;SDS011;55959;51.244;5.724;2022-10-16T02:42:39;2.10;;;0.70;;
68921;SDS011;55959;51.244;5.724;2022-10-16T02:45:06;1.00;;;0.73;;
68921;SDS011;55959;51.244;5.724;2022-10-16T02:47:34;0.70;;;0.63;;
68921;SDS011;55959;51.244;5.724;2022-10-16T02:49:59;1.23;;;0.60;;
68921;SDS011;55959;51.244;5.724;2022-10-16T02:52:25;0.50;;;0.50;;
68921;SDS011;55959;51.244;5.724;2022-10-16T02:54:51;0.73;;;0.60;;
68921;SDS011;55959;51.244;5.724;2022-10-16T02:57:17;1.03;;;0.70;;
68921;SDS011;55959;51.244;5.724;2022-10-16T02:59:43;1.13;;;0.70;;
68921;SDS011;55959;51.244;5.724;2022-10-16T03:02:10;1.30;;;0.60;;
68921;SDS011;55959;51.244;5.724;2022-10-16T03:04:36;0.70;;;0.67;;
68921;SDS011;55959;51.244;5.724;2022-10-16T03:07:02;0.77;;;0.60;;
68921;SDS011;55959;51.244;5.724;2022-10-16T03:09:30;1.97;;;0.70;;
68921;SDS011;55959;51.244;5.724;2022-10-16T03:11:56;0.53;;;0.50;;
68921;SDS011;55959;51.244;5.724;2022-10-16T03:14:22;0.40;;;0.40;;
68921;SDS011;55959;51.244;5.724;2022-10-16T03:16:48;1.73;;;0.70;;
68921;SDS011;55959;51.244;5.724;2022-10-16T03:19:13;1.17;;;0.50;;
68921;SDS011;55959;51.244;5.724;2022-10-16T03:21:41;1.23;;;0.70;;
68921;SDS011;55959;51.244;5.724;2022-10-16T03:24:07;1.23;;;0.50;;
68921;SDS011;55959;51.244;5.724;2022-10-16T03:26:33;1.10;;;0.63;;
68921;SDS011;55959;51.244;5.724;2022-10-16T03:28:58;0.57;;;0.53;;
68921;SDS011;55959;51.244;5.724;2022-10-16T03:31:24;1.30;;;0.50;;
68921;SDS011;55959;51.244;5.724;2022-10-16T03:33:50;1.00;;;0.60;;
68921;SDS011;55959;51.244;5.724;2022-10-16T03:36:16;0.63;;;0.60;;
68921;SDS011;55959;51.244;5.724;2022-10-16T03:38:41;0.70;;;0.57;;
68921;SDS011;55959;51.244;5.724;2022-10-16T03:41:07;1.03;;;0.70;;
68921;SDS011;55959;51.244;5.724;2022-10-16T03:43:33;0.60;;;0.50;;
68921;SDS011;55959;51.244;5.724;2022-10-16T03:45:59;3.27;;;0.70;;
68921;SDS011;55959;51.244;5.724;2022-10-16T03:48:24;0.67;;;0.67;;
68921;SDS011;55959;51.244;5.724;2022-10-16T03:50:50;1.03;;;0.60;;
68921;SDS011;55959;51.244;5.724;2022-10-16T03:53:16;1.17;;;0.50;;
68921;SDS011;55959;51.244;5.724;2022-10-16T03:55:43;0.80;;;0.60;;
68921;SDS011;55959;51.244;5.724;2022-10-16T03:58:09;1.20;;;0.80;;
68921;SDS011;55959;51.244;5.724;2022-10-16T04:00:35;0.57;;;0.50;;
68921;SDS011;55959;51.244;5.724;2022-10-16T04:03:08;1.23;;;0.40;;
68921;SDS011;55959;51.244;5.724;2022-10-16T04:05:34;0.80;;;0.70;;
68921;SDS011;55959;51.244;5.724;2022-10-16T04:08:00;0.70;;;0.60;;
68921;SDS011;55959;51.244;5.724;2022-10-16T04:10:25;1.53;;;0.70;;
68921;SDS011;55959;51.244;5.724;2022-10-16T04:12:51;0.67;;;0.50;;
68921;SDS011;55959;51.244;5.724;2022-10-16T04:15:19;0.57;;;0.47;;
68921;SDS011;55959;51.244;5.724;2022-10-16T04:17:45;0.60;;;0.60;;
68921;SDS011;55959;51.244;5.724;2022-10-16T04:20:11;1.40;;;0.70;;
68921;SDS011;55959;51.244;5.724;2022-10-16T04:22:37;1.00;;;0.63;;
68921;SDS011;55959;51.244;5.724;2022-10-16T04:25:02;0.60;;;0.60;;
68921;SDS011;55959;51.244;5.724;2022-10-16T04:27:28;0.63;;;0.63;;
68921;SDS011;55959;51.244;5.724;2022-10-16T04:29:56;0.77;;;0.70;;
68921;SDS011;55959;51.244;5.724;2022-10-16T04:32:25;1.17;;;0.57;;
68921;SDS011;55959;51.244;5.724;2022-10-16T04:34:51;1.27;;;0.60;;
68921;SDS011;55959;51.244;5.724;2022-10-16T04:37:17;1.60;;;0.70;;
68921;SDS011;55959;51.244;5.724;2022-10-16T04:39:44;1.80;;;0.73;;
68921;SDS011;55959;51.244;5.724;2022-10-16T04:42:10;0.70;;;0.70;;
68921;SDS011;55959;51.244;5.724;2022-10-16T04:44:36;1.27;;;0.83;;
68921;SDS011;55959;51.244;5.724;2022-10-16T04:47:02;0.60;;;0.60;;
68921;SDS011;55959;51.244;5.724;2022-10-16T04:49:29;1.20;;;0.80;;
68921;SDS011;55959;51.244;5.724;2022-10-16T04:51:54;0.70;;;0.60;;
68921;SDS011;55959;51.244;5.724;2022-10-16T04:54:20;1.40;;;0.77;;
68921;SDS011;55959;51.244;5.724;2022-10-16T04:56:46;0.83;;;0.57;;
68921;SDS011;55959;51.244;5.724;2022-10-16T04:59:15;1.67;;;0.80;;
68921;SDS011;55959;51.244;5.724;2022-10-16T05:01:43;1.97;;;0.87;;
68921;SDS011;55959;51.244;5.724;2022-10-16T05:04:09;0.70;;;0.60;;
68921;SDS011;55959;51.244;5.724;2022-10-16T05:06:35;1.57;;;0.57;;
68921;SDS011;55959;51.244;5.724;2022-10-16T05:09:03;0.70;;;0.70;;
68921;SDS011;55959;51.244;5.724;2022-10-16T05:11:30;0.80;;;0.73;;
68921;SDS011;55959;51.244;5.724;2022-10-16T05:13:56;0.67;;;0.67;;
68921;SDS011;55959;51.244;5.724;2022-10-16T05:16:23;0.60;;;0.60;;
68921;SDS011;55959;51.244;5.724;2022-10-16T05:18:50;0.80;;;0.50;;
68921;SDS011;55959;51.244;5.724;2022-10-16T05:21:17;1.03;;;0.60;;
68921;SDS011;55959;51.244;5.724;2022-10-16T05:23:42;1.43;;;0.70;;
68921;SDS011;55959;51.244;5.724;2022-10-16T05:26:08;1.20;;;0.70;;
68921;SDS011;55959;51.244;5.724;2022-10-16T05:28:34;0.83;;;0.80;;
68921;SDS011;55959;51.244;5.724;2022-10-16T05:31:04;0.77;;;0.70;;
68921;SDS011;55959;51.244;5.724;2022-10-16T05:33:31;1.90;;;0.87;;
68921;SDS011;55959;51.244;5.724;2022-10-16T05:36:01;0.80;;;0.80;;
68921;SDS011;55959;51.244;5.724;2022-10-16T05:38:32;0.93;;;0.70;;
68921;SDS011;55959;51.244;5.724;2022-10-16T05:41:01;0.93;;;0.70;;
68921;SDS011;55959;51.244;5.724;2022-10-16T05:43:29;1.30;;;0.60;;
68921;SDS011;55959;51.244;5.724;2022-10-16T05:46:01;1.17;;;0.70;;
68921;SDS011;55959;51.244;5.724;2022-10-16T05:48:29;1.33;;;0.80;;
68921;SDS011;55959;51.244;5.724;2022-10-16T05:51:00;1.90;;;0.93;;
68921;SDS011;55959;51.244;5.724;2022-10-16T05:53:32;1.43;;;0.80;;
68921;SDS011;55959;51.244;5.724;2022-10-16T05:56:00;2.57;;;0.80;;
68921;SDS011;55959;51.244;5.724;2022-10-16T05:58:30;2.00;;;0.93;;
68921;SDS011;55959;51.244;5.724;2022-10-16T06:01:03;1.10;;;0.83;;
68921;SDS011;55959;51.244;5.724;2022-10-16T06:03:32;1.10;;;1.00;;
68921;SDS011;55959;51.244;5.724;2022-10-16T06:05:59;1.00;;;0.90;;
68921;SDS011;55959;51.244;5.724;2022-10-16T06:08:32;0.83;;;0.70;;
68921;SDS011;55959;51.244;5.724;2022-10-16T06:11:03;2.40;;;0.90;;
68921;SDS011;55959;51.244;5.724;2022-10-16T06:13:30;2.00;;;0.90;;
68921;SDS011;55959;51.244;5.724;2022-10-16T06:15:57;1.77;;;0.83;;
68921;SDS011;55959;51.244;5.724;2022-10-16T06:18:25;0.70;;;0.70;;
68921;SDS011;55959;51.244;5.724;2022-10-16T06:20:52;1.47;;;0.90;;
68921;SDS011;55959;51.244;5.724;2022-10-16T06:23:18;0.90;;;0.73;;
68921;SDS011;55959;51.244;5.724;2022-10-16T06:25:44;1.03;;;0.80;;
68921;SDS011;55959;51.244;5.724;2022-10-16T06:28:09;0.90;;;0.70;;
68921;SDS011;55959;51.244;5.724;2022-10-16T06:30:35;1.33;;;0.93;;
68921;SDS011;55959;51.244;5.724;2022-10-16T06:33:01;1.00;;;0.70;;
68921;SDS011;55959;51.244;5.724;2022-10-16T06:35:27;1.27;;;0.90;;
68921;SDS011;55959;51.244;5.724;2022-10-16T06:37:54;1.13;;;0.97;;
68921;SDS011;55959;51.244;5.724;2022-10-16T06:40:19;1.87;;;1.20;;
68921;SDS011;55959;51.244;5.724;2022-10-16T06:42:45;1.10;;;0.90;;
68921;SDS011;55959;51.244;5.724;2022-10-16T06:45:11;1.40;;;1.27;;
68921;SDS011;55959;51.244;5.724;2022-10-16T06:47:37;2.30;;;1.03;;
68921;SDS011;55959;51.244;5.724;2022-10-16T06:50:03;1.23;;;1.10;;
68921;SDS011;55959;51.244;5.724;2022-10-16T06:52:31;1.27;;;1.00;;
68921;SDS011;55959;51.244;5.724;2022-10-16T06:54:58;1.00;;;0.83;;
68921;SDS011;55959;51.244;5.724;2022-10-16T06:57:24;0.80;;;0.80;;
68921;SDS011;55959;51.244;5.724;2022-10-16T06:59:50;1.23;;;0.80;;
68921;SDS011;55959;51.244;5.724;2022-10-16T07:02:16;1.60;;;1.00;;
68921;SDS011;55959;51.244;5.724;2022-10-16T07:04:42;1.43;;;0.90;;
68921;SDS011;55959;51.244;5.724;2022-10-16T07:07:07;1.80;;;0.80;;
68921;SDS011;55959;51.244;5.724;2022-10-16T07:09:33;1.67;;;0.80;;
68921;SDS011;55959;51.244;5.724;2022-10-16T07:11:59;1.17;;;0.90;;
68921;SDS011;55959;51.244;5.724;2022-10-16T07:14:25;1.00;;;0.80;;
68921;SDS011;55959;51.244;5.724;2022-10-16T07:16:50;1.67;;;0.90;;
68921;SDS011;55959;51.244;5.724;2022-10-16T07:19:16;0.73;;;0.73;;
68921;SDS011;55959;51.244;5.724;2022-10-16T07:21:43;0.93;;;0.83;;
68921;SDS011;55959;51.244;5.724;2022-10-16T07:24:18;2.00;;;0.80;;
68921;SDS011;55959;51.244;5.724;2022-10-16T07:26:44;2.20;;;1.00;;
68921;SDS011;55959;51.244;5.724;2022-10-16T07:29:12;1.23;;;1.10;;
68921;SDS011;55959;51.244;5.724;2022-10-16T07:31:40;2.20;;;0.97;;
68921;SDS011;55959;51.244;5.724;2022-10-16T07:34:07;1.50;;;0.90;;
68921;SDS011;55959;51.244;5.724;2022-10-16T07:36:33;1.00;;;0.90;;
68921;SDS011;55959;51.244;5.724;2022-10-16T07:38:59;1.53;;;0.80;;
68921;SDS011;55959;51.244;5.724;2022-10-16T07:41:25;1.03;;;0.90;;
68921;SDS011;55959;51.244;5.724;2022-10-16T07:43:51;0.83;;;0.80;;
68921;SDS011;55959;51.244;5.724;2022-10-16T07:46:18;2.53;;;1.03;;
68921;SDS011;55959;51.244;5.724;2022-10-16T07:48:46;0.83;;;0.70;;
68921;SDS011;55959;51.244;5.724;2022-10-16T07:51:14;0.80;;;0.80;;
68921;SDS011;55959;51.244;5.724;2022-10-16T07:53:43;2.20;;;0.87;;
68921;SDS011;55959;51.244;5.724;2022-10-16T07:56:09;1.37;;;0.80;;
68921;SDS011;55959;51.244;5.724;2022-10-16T07:58:35;1.63;;;1.00;;
68921;SDS011;55959;51.244;5.724;2022-10-16T08:01:09;0.97;;;0.80;;
68921;SDS011;55959;51.244;5.724;2022-10-16T08:03:38;1.00;;;0.90;;
68921;SDS011;55959;51.244;5.724;2022-10-16T08:06:07;1.67;;;0.80;;
68921;SDS011;55959;51.244;5.724;2022-10-16T08:08:33;2.00;;;0.90;;
68921;SDS011;55959;51.244;5.724;2022-10-16T08:11:00;1.83;;;0.90;;
68921;SDS011;55959;51.244;5.724;2022-10-16T08:13:28;1.27;;;0.90;;
68921;SDS011;55959;51.244;5.724;2022-10-16T08:15:54;2.13;;;0.80;;
68921;SDS011;55959;51.244;5.724;2022-10-16T08:18:20;1.73;;;0.70;;
68921;SDS011;55959;51.244;5.724;2022-10-16T08:20:46;1.87;;;0.83;;
68921;SDS011;55959;51.244;5.724;2022-10-16T08:23:12;0.93;;;0.70;;
68921;SDS011;55959;51.244;5.724;2022-10-16T08:25:38;1.37;;;0.70;;
68921;SDS011;55959;51.244;5.724;2022-10-16T08:28:06;0.90;;;0.87;;
68921;SDS011;55959;51.244;5.724;2022-10-16T08:30:34;1.80;;;1.00;;
68921;SDS011;55959;51.244;5.724;2022-10-16T08:33:01;1.07;;;0.60;;
68921;SDS011;55959;51.244;5.724;2022-10-16T08:35:27;1.37;;;0.90;;
68921;SDS011;55959;51.244;5.724;2022-10-16T08:37:53;1.20;;;0.80;;
68921;SDS011;55959;51.244;5.724;2022-10-16T08:40:20;0.80;;;0.80;;
68921;SDS011;55959;51.244;5.724;2022-10-16T08:48:52;1.47;;;1.00;;
68921;SDS011;55959;51.244;5.724;2022-10-16T08:51:26;1.03;;;0.80;;
68921;SDS011;55959;51.244;5.724;2022-10-16T08:53:57;1.37;;;0.70;;
68921;SDS011;55959;51.244;5.724;2022-10-16T08:56:27;1.27;;;0.93;;
68921;SDS011;55959;51.244;5.724;2022-10-16T08:58:54;1.77;;;0.90;;
68921;SDS011;55959;51.244;5.724;2022-10-16T09:01:21;1.93;;;0.70;;
68921;SDS011;55959;51.244;5.724;2022-10-16T09:06:52;1.67;;;0.80;;
68921;SDS011;55959;51.244;5.724;2022-10-16T09:12:12;2.13;;;1.00;;
68921;SDS011;55959;51.244;5.724;2022-10-16T09:14:52;0.90;;;0.70;;
68921;SDS011;55959;51.244;5.724;2022-10-16T09:20:17;1.00;;;0.50;;
68921;SDS011;55959;51.244;5.724;2022-10-16T09:23:30;0.83;;;0.80;;
68921;SDS011;55959;51.244;5.724;2022-10-16T09:26:02;1.13;;;0.60;;
68921;SDS011;55959;51.244;5.724;2022-10-16T09:28:30;1.00;;;0.63;;
68921;SDS011;55959;51.244;5.724;2022-10-16T09:30:56;1.60;;;0.70;;
68921;SDS011;55959;51.244;5.724;2022-10-16T09:33:23;0.60;;;0.50;;
68921;SDS011;55959;51.244;5.724;2022-10-16T09:35:56;0.67;;;0.40;;
68921;SDS011;55959;51.244;5.724;2022-10-16T09:38:27;1.00;;;0.70;;
68921;SDS011;55959;51.244;5.724;2022-10-16T09:40:57;0.93;;;0.40;;
68921;SDS011;55959;51.244;5.724;2022-10-16T09:43:26;2.23;;;0.57;;
68921;SDS011;55959;51.244;5.724;2022-10-16T09:48:37;1.63;;;0.77;;
68921;SDS011;55959;51.244;5.724;2022-10-16T09:51:33;1.83;;;0.67;;
68921;SDS011;55959;51.244;5.724;2022-10-16T09:54:12;1.63;;;0.60;;
68921;SDS011;55959;51.244;5.724;2022-10-16T09:56:44;1.23;;;0.70;;
68921;SDS011;55959;51.244;5.724;2022-10-16T09:59:18;1.37;;;0.70;;
68921;SDS011;55959;51.244;5.724;2022-10-16T10:01:47;0.80;;;0.50;;
68921;SDS011;55959;51.244;5.724;2022-10-16T10:04:17;0.73;;;0.57;;
68921;SDS011;55959;51.244;5.724;2022-10-16T10:06:46;1.20;;;0.60;;
68921;SDS011;55959;51.244;5.724;2022-10-16T10:12:02;2.20;;;0.80;;
68921;SDS011;55959;51.244;5.724;2022-10-16T10:14:37;0.70;;;0.47;;
68921;SDS011;55959;51.244;5.724;2022-10-16T10:17:13;1.07;;;0.60;;
68921;SDS011;55959;51.244;5.724;2022-10-16T10:25:01;1.60;;;0.50;;
68921;SDS011;55959;51.244;5.724;2022-10-16T10:30:01;1.50;;;0.70;;
68921;SDS011;55959;51.244;5.724;2022-10-16T11:01:37;2.27;;;0.60;;
68921;SDS011;55959;51.244;5.724;2022-10-16T11:05:18;0.90;;;0.60;;
68921;SDS011;55959;51.244;5.724;2022-10-16T11:07:19;1.70;;;0.80;;
68921;SDS011;55959;51.244;5.724;2022-10-16T11:09:52;1.00;;;0.40;;
68921;SDS011;55959;51.244;5.724;2022-10-16T11:15:01;0.75;;;0.47;;
68921;SDS011;55959;51.244;5.724;2022-10-16T11:17:53;2.85;;;0.60;;
68921;SDS011;55959;51.244;5.724;2022-10-16T11:20:37;1.50;;;0.70;;
68921;SDS011;55959;51.244;5.724;2022-10-16T11:23:33;2.75;;;0.82;;
68921;SDS011;55959;51.244;5.724;2022-10-16T11:26:35;2.50;;;0.90;;
68921;SDS011;55959;51.244;5.724;2022-10-16T11:29:10;1.65;;;1.00;;
68921;SDS011;55959;51.244;5.724;2022-10-16T11:31:43;1.87;;;0.90;;
68921;SDS011;55959;51.244;5.724;2022-10-16T11:34:17;1.73;;;0.80;;
68921;SDS011;55959;51.244;5.724;2022-10-16T11:39:37;1.33;;;0.65;;
68921;SDS011;55959;51.244;5.724;2022-10-16T11:42:09;1.48;;;0.50;;
68921;SDS011;55959;51.244;5.724;2022-10-16T11:47:37;0.57;;;0.38;;
68921;SDS011;55959;51.244;5.724;2022-10-16T11:56:17;0.75;;;0.50;;
68921;SDS011;55959;51.244;5.724;2022-10-16T11:58:48;2.55;;;0.70;;
68921;SDS011;55959;51.244;5.724;2022-10-16T12:01:53;2.65;;;0.88;;
68921;SDS011;55959;51.244;5.724;2022-10-16T12:04:48;2.47;;;0.52;;
68921;SDS011;55959;51.244;5.724;2022-10-16T12:07:27;1.10;;;0.65;;
68921;SDS011;55959;51.244;5.724;2022-10-16T12:12:50;0.65;;;0.40;;
68921;SDS011;55959;51.244;5.724;2022-10-16T12:15:20;1.00;;;0.60;;
68921;SDS011;55959;51.244;5.724;2022-10-16T12:17:56;1.02;;;0.65;;
68921;SDS011;55959;51.244;5.724;2022-10-16T12:20:26;2.88;;;0.40;;
68921;SDS011;55959;51.244;5.724;2022-10-16T12:25:34;0.50;;;0.40;;
68921;SDS011;55959;51.244;5.724;2022-10-16T12:28:05;1.35;;;0.60;;
68921;SDS011;55959;51.244;5.724;2022-10-16T12:30:52;1.20;;;0.60;;
68921;SDS011;55959;51.244;5.724;2022-10-16T12:33:25;1.77;;;0.68;;
68921;SDS011;55959;51.244;5.724;2022-10-16T12:35:54;2.67;;;0.57;;
68921;SDS011;55959;51.244;5.724;2022-10-16T12:38:21;1.20;;;0.52;;
68921;SDS011;55959;51.244;5.724;2022-10-16T12:41:05;1.58;;;0.60;;
68921;SDS011;55959;51.244;5.724;2022-10-16T12:48:33;1.00;;;0.52;;
68921;SDS011;55959;51.244;5.724;2022-10-16T12:54:03;1.42;;;0.68;;
68921;SDS011;55959;51.244;5.724;2022-10-16T13:02:49;2.00;;;0.75;;
68921;SDS011;55959;51.244;5.724;2022-10-16T13:18:13;1.65;;;0.52;;
68921;SDS011;55959;51.244;5.724;2022-10-16T13:21:01;1.60;;;0.52;;
68921;SDS011;55959;51.244;5.724;2022-10-16T13:29:45;1.77;;;0.57;;
68921;SDS011;55959;51.244;5.724;2022-10-16T13:32:17;2.00;;;0.70;;
68921;SDS011;55959;51.244;5.724;2022-10-16T13:34:46;2.78;;;0.90;;
68921;SDS011;55959;51.244;5.724;2022-10-16T13:37:21;1.08;;;0.88;;
68921;SDS011;55959;51.244;5.724;2022-10-16T13:39:48;1.40;;;0.80;;
68921;SDS011;55959;51.244;5.724;2022-10-16T13:42:28;0.90;;;0.60;;
68921;SDS011;55959;51.244;5.724;2022-10-16T13:44:55;2.33;;;0.70;;
68921;SDS011;55959;51.244;5.724;2022-10-16T13:47:25;1.33;;;0.70;;
68921;SDS011;55959;51.244;5.724;2022-10-16T13:50:00;1.75;;;0.75;;
68921;SDS011;55959;51.244;5.724;2022-10-16T13:52:27;1.08;;;0.57;;
68921;SDS011;55959;51.244;5.724;2022-10-16T13:54:53;1.08;;;0.60;;
68921;SDS011;55959;51.244;5.724;2022-10-16T13:57:21;1.73;;;0.60;;
68921;SDS011;55959;51.244;5.724;2022-10-16T13:59:49;0.65;;;0.50;;
68921;SDS011;55959;51.244;5.724;2022-10-16T14:04:54;1.67;;;0.73;;
68921;SDS011;55959;51.244;5.724;2022-10-16T14:07:26;0.50;;;0.50;;
68921;SDS011;55959;51.244;5.724;2022-10-16T14:10:00;0.95;;;0.52;;
68921;SDS011;55959;51.244;5.724;2022-10-16T14:12:33;1.30;;;0.55;;
68921;SDS011;55959;51.244;5.724;2022-10-16T14:14:59;1.15;;;0.60;;
68921;SDS011;55959;51.244;5.724;2022-10-16T14:17:29;1.25;;;0.68;;
68921;SDS011;55959;51.244;5.724;2022-10-16T14:20:00;1.60;;;0.75;;
68921;SDS011;55959;51.244;5.724;2022-10-16T14:22:34;1.00;;;0.60;;
68921;SDS011;55959;51.244;5.724;2022-10-16T14:27:44;1.65;;;0.70;;
68921;SDS011;55959;51.244;5.724;2022-10-16T14:30:21;1.60;;;0.70;;
68921;SDS011;55959;51.244;5.724;2022-10-16T14:35:31;2.28;;;0.95;;
68921;SDS011;55959;51.244;5.724;2022-10-16T14:38:01;2.00;;;1.08;;
68921;SDS011;55959;51.244;5.724;2022-10-16T14:40:30;2.10;;;1.10;;
68921;SDS011;55959;51.244;5.724;2022-10-16T14:42:59;2.00;;;1.08;;
68921;SDS011;55959;51.244;5.724;2022-10-16T14:45:30;2.35;;;1.02;;
68921;SDS011;55959;51.244;5.724;2022-10-16T14:47:59;1.98;;;1.10;;
68921;SDS011;55959;51.244;5.724;2022-10-16T14:50:37;2.35;;;0.80;;
68921;SDS011;55959;51.244;5.724;2022-10-16T14:53:07;1.52;;;0.90;;
68921;SDS011;55959;51.244;5.724;2022-10-16T14:55:38;29.20;;;27.42;;
68921;SDS011;55959;51.244;5.724;2022-10-16T14:58:05;406.92;;;374.92;;
68921;SDS011;55959;51.244;5.724;2022-10-16T15:00:45;348.08;;;319.70;;
68921;SDS011;55959;51.244;5.724;2022-10-16T15:03:11;440.13;;;357.00;;
68921;SDS011;55959;51.244;5.724;2022-10-16T15:05:37;238.38;;;202.48;;
68921;SDS011;55959;51.244;5.724;2022-10-16T15:08:03;99.80;;;80.13;;
68921;SDS011;55959;51.244;5.724;2022-10-16T15:10:29;60.17;;;48.78;;
68921;SDS011;55959;51.244;5.724;2022-10-16T15:12:58;111.45;;;87.15;;
68921;SDS011;55959;51.244;5.724;2022-10-16T15:15:30;163.95;;;135.13;;
68921;SDS011;55959;51.244;5.724;2022-10-16T15:18:02;120.43;;;106.95;;
68921;SDS011;55959;51.244;5.724;2022-10-16T15:20:33;68.18;;;56.28;;
68921;SDS011;55959;51.244;5.724;2022-10-16T15:23:02;32.25;;;29.02;;
68921;SDS011;55959;51.244;5.724;2022-10-16T15:25:43;13.70;;;12.40;;
68921;SDS011;55959;51.244;5.724;2022-10-16T15:28:14;6.30;;;5.70;;
68921;SDS011;55959;51.244;5.724;2022-10-16T15:30:41;19.35;;;17.50;;
68921;SDS011;55959;51.244;5.724;2022-10-16T15:33:11;8.18;;;7.32;;
68921;SDS011;55959;51.244;5.724;2022-10-16T15:35:40;6.30;;;4.53;;
68921;SDS011;55959;51.244;5.724;2022-10-16T15:38:06;4.50;;;4.07;;
68921;SDS011;55959;51.244;5.724;2022-10-16T15:40:38;5.07;;;4.57;;
68921;SDS011;55959;51.244;5.724;2022-10-16T15:43:04;9.23;;;8.13;;
68921;SDS011;55959;51.244;5.724;2022-10-16T15:45:30;4.93;;;4.53;;
68921;SDS011;55959;51.244;5.724;2022-10-16T15:47:56;4.05;;;3.60;;
68921;SDS011;55959;51.244;5.724;2022-10-16T15:50:22;5.30;;;4.80;;
68921;SDS011;55959;51.244;5.724;2022-10-16T15:52:48;9.00;;;8.20;;
68921;SDS011;55959;51.244;5.724;2022-10-16T15:55:16;23.65;;;21.83;;
68921;SDS011;55959;51.244;5.724;2022-10-16T15:57:43;9.73;;;8.95;;
68921;SDS011;55959;51.244;5.724;2022-10-16T16:00:11;9.82;;;9.02;;
68921;SDS011;55959;51.244;5.724;2022-10-16T16:02:43;7.57;;;6.93;;
68921;SDS011;55959;51.244;5.724;2022-10-16T16:05:15;5.28;;;4.25;;
68921;SDS011;55959;51.244;5.724;2022-10-16T16:07:40;13.32;;;11.98;;
68921;SDS011;55959;51.244;5.724;2022-10-16T16:10:07;12.15;;;11.15;;
68921;SDS011;55959;51.244;5.724;2022-10-16T16:12:35;5.20;;;4.55;;
68921;SDS011;55959;51.244;5.724;2022-10-16T16:15:02;4.13;;;2.88;;
68921;SDS011;55959;51.244;5.724;2022-10-16T16:17:32;3.55;;;3.17;;
68921;SDS011;55959;51.244;5.724;2022-10-16T16:20:00;19.77;;;17.73;;
68921;SDS011;55959;51.244;5.724;2022-10-16T16:22:27;52.47;;;47.10;;
68921;SDS011;55959;51.244;5.724;2022-10-16T16:24:53;419.98;;;379.10;;
68921;SDS011;55959;51.244;5.724;2022-10-16T16:27:18;392.33;;;353.05;;
68921;SDS011;55959;51.244;5.724;2022-10-16T16:29:49;737.42;;;569.58;;
68921;SDS011;55959;51.244;5.724;2022-10-16T16:32:15;358.00;;;296.88;;
68921;SDS011;55959;51.244;5.724;2022-10-16T16:34:41;686.55;;;609.70;;
68921;SDS011;55959;51.244;5.724;2022-10-16T16:37:06;362.60;;;323.67;;
68921;SDS011;55959;51.244;5.724;2022-10-16T16:39:34;220.95;;;186.93;;
68921;SDS011;55959;51.244;5.724;2022-10-16T16:42:00;81.63;;;72.55;;
68921;SDS011;55959;51.244;5.724;2022-10-16T16:44:27;37.17;;;31.75;;
68921;SDS011;55959;51.244;5.724;2022-10-16T16:46:53;14.82;;;12.43;;
68921;SDS011;55959;51.244;5.724;2022-10-16T16:49:19;7.50;;;5.75;;
68921;SDS011;55959;51.244;5.724;2022-10-16T16:51:45;5.70;;;3.50;;
68921;SDS011;55959;51.244;5.724;2022-10-16T16:54:11;2.50;;;2.30;;
68921;SDS011;55959;51.244;5.724;2022-10-16T16:56:39;3.63;;;2.33;;
68921;SDS011;55959;51.244;5.724;2022-10-16T16:59:10;4.10;;;2.87;;
68921;SDS011;55959;51.244;5.724;2022-10-16T17:01:39;3.23;;;2.67;;
68921;SDS011;55959;51.244;5.724;2022-10-16T17:04:05;2.47;;;2.27;;
68921;SDS011;55959;51.244;5.724;2022-10-16T17:06:32;20.07;;;17.73;;
68921;SDS011;55959;51.244;5.724;2022-10-16T17:08:58;15.13;;;13.53;;
68921;SDS011;55959;51.244;5.724;2022-10-16T17:11:27;7.03;;;5.50;;
68921;SDS011;55959;51.244;5.724;2022-10-16T17:13:54;128.10;;;114.45;;
68921;SDS011;55959;51.244;5.724;2022-10-16T17:16:29;57.40;;;51.40;;